Time;durP1;ratioP1;P1;durP2;ratioP2;P2;SDS_P1;SDS_P2;PMS_P1;PMS_P2;Temp;Humidity;BMP_temperature;BMP_pressure;BME280_temperature;BME280_humidity;BME280_pressure;Samples;Min_cycle;Max_cycle;Signal;HPM_P1;HPM_P2
2022/07/26 00:02:06;;;;;;;;;4.00;1.00;;;;;19.74;100.00;101347.16;4890495;29;44653;-89
2022/07/26 00:04:33;;;;;;;;;1.75;1.75;;;;;19.74;100.00;101341.75;4909261;29;45381;-89
2022/07/26 00:06:59;;;;;;;;;1.00;1.00;;;;;19.74;100.00;101350.69;4909783;29;45394;-89
2022/07/26 00:09:24;;;;;;;;;3.00;1.00;;;;;19.66;100.00;101357.81;4892331;29;44824;-90
2022/07/26 00:11:50;;;;;;;;;2.50;2.50;;;;;19.63;100.00;101358.09;4910523;29;44841;-91
2022/07/26 00:14:16;;;;;;;;;1.00;1.00;;;;;19.61;100.00;101358.25;4894981;29;45396;-90
2022/07/26 00:16:42;;;;;;;;;1.00;1.00;;;;;19.63;100.00;101360.78;4895399;29;46749;-89
2022/07/26 00:19:08;;;;;;;;;1.50;1.50;;;;;19.63;100.00;101350.88;4914697;29;44639;-89
2022/07/26 00:24:38;;;;;;;;;1.00;1.00;;;;;19.57;100.00;101366.72;5347493;23;44953;-90
2022/07/26 00:27:04;;;;;;;;;3.60;1.20;;;;;19.55;100.00;101363.34;4940796;28;45012;-91
2022/07/26 00:29:30;;;;;;;;;2.40;1.20;;;;;19.54;100.00;101362.50;4939331;28;44800;-90
2022/07/26 00:31:57;;;;;;;;;2.00;0.75;;;;;19.53;100.00;101355.38;4936461;28;45362;-89
2022/07/26 00:34:25;;;;;;;;;1.60;1.60;;;;;19.45;100.00;101360.66;4942299;28;44757;-89
2022/07/26 00:36:50;;;;;;;;;2.20;1.20;;;;;19.42;100.00;101355.56;4961279;28;46654;-89
2022/07/26 00:39:16;;;;;;;;;0.75;0.50;;;;;19.43;100.00;101355.41;4953904;28;44733;-90
2022/07/26 00:41:43;;;;;;;;;1.00;1.00;;;;;19.38;100.00;101360.38;4950410;28;44906;-89
2022/07/26 00:44:09;;;;;;;;;1.00;1.00;;;;;19.31;100.00;101361.13;4957035;28;45536;-90
2022/07/26 00:46:34;;;;;;;;;1.75;1.25;;;;;19.23;100.00;101362.69;4923396;28;46572;-89
2022/07/26 00:49:00;;;;;;;;;1.25;1.25;;;;;19.14;100.00;101362.69;4924201;28;44775;-89
2022/07/26 00:51:25;;;;;;;;;1.00;1.00;;;;;19.16;100.00;101361.56;4923865;28;45342;-90
2022/07/26 00:56:26;;;;;;;;;1.00;1.00;;;;;19.21;100.00;101353.91;4924795;28;45832;-89
2022/07/26 00:58:52;;;;;;;;;1.00;1.00;;;;;19.15;100.00;101357.19;4912805;28;44755;-89
2022/07/26 01:01:18;;;;;;;;;1.00;1.00;;;;;19.14;100.00;101357.28;4934411;28;45377;-89
2022/07/26 01:03:44;;;;;;;;;2.25;0.00;;;;;19.15;100.00;101361.72;4910726;28;45512;-90
2022/07/26 01:06:10;;;;;;;;;0.00;0.00;;;;;19.14;100.00;101360.00;4918663;28;46856;-89
2022/07/26 01:08:37;;;;;;;;;0.40;0.40;;;;;19.10;100.00;101355.88;4913728;28;45395;-89
2022/07/26 01:11:02;;;;;;;;;0.20;0.20;;;;;19.05;100.00;101358.16;4929050;28;44760;-89
2022/07/26 01:13:28;;;;;;;;;1.75;1.00;;;;;19.02;100.00;101362.00;4913684;28;45270;-89
2022/07/26 01:15:53;;;;;;;;;2.00;2.00;;;;;18.94;100.00;101357.31;4908335;28;46545;-90
2022/07/26 01:18:19;;;;;;;;;1.25;1.25;;;;;18.95;100.00;101356.34;4923287;28;44631;-90
2022/07/26 01:23:22;;;;;;;;;4.00;1.60;;;;;19.01;100.00;101360.31;5282586;23;45925;-89
2022/07/26 01:25:48;;;;;;;;;2.00;2.00;;;;;18.97;100.00;101366.97;4927526;28;45355;-90
2022/07/26 01:28:14;;;;;;;;;1.50;1.50;;;;;18.94;100.00;101359.16;4927357;28;44729;-90
2022/07/26 01:30:40;;;;;;;;;0.75;0.75;;;;;18.93;100.00;101355.63;4926386;28;45372;-90
2022/07/26 01:33:05;;;;;;;;;1.40;1.20;;;;;18.88;100.00;101348.97;4927734;28;44894;-89
2022/07/26 01:35:32;;;;;;;;;1.00;1.00;;;;;18.84;100.00;101351.06;4927366;28;44925;-90
2022/07/26 01:43:55;;;;;;;;;0.80;0.80;;;;;18.77;100.00;101354.50;5143347;23;46311;-91
2022/07/26 01:48:56;;;;;;;;;4.40;1.00;;;;;18.78;100.00;101350.78;5466813;23;46668;-88
2022/07/26 01:51:22;;;;;;;;;1.75;1.75;;;;;18.74;100.00;101356.44;4915949;29;45131;-89
2022/07/26 01:53:47;;;;;;;;;1.00;1.00;;;;;18.64;100.00;101352.88;4894418;29;44946;-88
2022/07/26 01:56:13;;;;;;;;;0.00;0.00;;;;;18.64;100.00;101350.19;4912171;29;45310;-89
2022/07/26 01:58:39;;;;;;;;;2.25;1.25;;;;;18.65;100.00;101351.88;4911270;29;44696;-88
2022/07/26 02:01:06;;;;;;;;;2.00;0.20;;;;;18.58;100.00;101353.44;5230491;23;46569;-88
2022/07/26 02:03:31;;;;;;;;;1.00;1.00;;;;;18.57;100.00;101348.19;4913462;28;44851;-87
2022/07/26 02:05:57;;;;;;;;;0.00;0.00;;;;;18.53;100.00;101347.63;4927146;28;45018;-89
2022/07/26 02:08:22;;;;;;;;;1.25;1.25;;;;;18.56;100.00;101349.16;4924872;28;44645;-87
2022/07/26 02:11:00;;;;;;;;;4.00;2.00;;;;;18.52;100.00;101355.81;4924656;28;44761;-87
2022/07/26 02:13:32;;;;;;;;;1.25;1.00;;;;;18.49;100.00;101347.03;4925533;28;44910;-87
2022/07/26 02:18:39;;;;;;;;;3.00;1.00;;;;;18.40;100.00;101352.41;5705467;23;46548;-88
2022/07/26 02:21:05;;;;;;;;;2.40;1.60;;;;;18.42;100.00;101353.09;4893384;29;44734;-88
2022/07/26 02:23:31;;;;;;;;;3.60;2.00;;;;;18.34;100.00;101356.50;4895229;29;44930;-89
2022/07/26 02:25:56;;;;;;;;;3.00;1.00;;;;;18.37;100.00;101358.94;4917219;29;46667;-88
2022/07/26 02:28:22;;;;;;;;;0.50;0.00;;;;;18.41;100.00;101356.78;4922358;29;44695;-88
2022/07/26 02:30:49;;;;;;;;;1.00;1.00;;;;;18.38;100.00;101366.00;4918812;29;44741;-89
2022/07/26 02:33:15;;;;;;;;;1.00;1.00;;;;;18.36;100.00;101359.06;4923891;28;44858;-88
2022/07/26 02:35:41;;;;;;;;;2.20;1.00;;;;;18.29;100.00;101364.13;4926084;28;45052;-87
2022/07/26 02:38:10;;;;;;;;;1.00;1.00;;;;;18.25;100.00;101365.41;4909039;28;44833;-86
2022/07/26 02:40:37;;;;;;;;;1.80;1.80;;;;;18.22;100.00;101374.56;4910038;28;44760;-87
2022/07/26 02:43:04;;;;;;;;;1.50;0.50;;;;;18.21;100.00;101363.97;4909183;29;44959;-86
2022/07/26 02:45:29;;;;;;;;;2.20;1.60;;;;;18.18;100.00;101359.72;4925300;29;44991;-87
2022/07/26 02:47:55;;;;;;;;;0.00;0.00;;;;;18.17;100.00;101368.75;4927422;28;44737;-87
2022/07/26 02:50:23;;;;;;;;;1.00;1.00;;;;;18.13;100.00;101364.66;4900030;29;44754;-88
2022/07/26 02:52:49;;;;;;;;;4.00;1.60;;;;;18.10;100.00;101366.75;4919171;29;44748;-88
2022/07/26 02:55:17;;;;;;;;;1.00;1.00;;;;;18.12;100.00;101368.31;4896275;29;47101;-87
2022/07/26 02:57:42;;;;;;;;;1.80;0.60;;;;;18.08;100.00;101383.00;4907740;29;45325;-88
2022/07/26 03:00:10;;;;;;;;;0.00;0.00;;;;;17.98;100.00;101380.28;4887554;29;44858;-88
2022/07/26 03:02:36;;;;;;;;;2.40;1.80;;;;;17.92;100.00;101378.16;4904417;29;44848;-89
2022/07/26 03:05:04;;;;;;;;;2.00;2.00;;;;;17.85;100.00;101371.63;4887373;29;46772;-88
2022/07/26 03:07:29;;;;;;;;;2.00;2.00;;;;;17.82;100.00;101371.88;4905381;29;45248;-89
2022/07/26 03:09:55;;;;;;;;;2.50;1.25;;;;;17.73;100.00;101378.06;4913142;29;44698;-88
2022/07/26 03:12:20;;;;;;;;;4.75;3.00;;;;;17.68;100.00;101381.09;4897547;29;44850;-89
2022/07/26 03:14:46;;;;;;;;;2.00;1.00;;;;;17.69;100.00;101385.47;4904726;29;46698;-88
2022/07/26 03:17:12;;;;;;;;;1.00;1.00;;;;;17.72;100.00;101387.91;4887273;29;45280;-89
2022/07/26 03:19:37;;;;;;;;;1.25;0.25;;;;;17.76;100.00;101387.69;4904251;28;44860;-88
2022/07/26 03:22:03;;;;;;;;;1.00;0.75;;;;;17.73;100.00;101392.34;4929952;28;45199;-89
2022/07/26 03:24:28;;;;;;;;;4.50;0.00;;;;;17.71;100.00;101390.75;4928532;28;46860;-88
2022/07/26 03:26:54;;;;;;;;;1.25;1.25;;;;;17.69;100.00;101395.38;4932058;28;44743;-88
2022/07/26 03:29:20;;;;;;;;;2.25;2.00;;;;;17.67;100.00;101392.00;4931692;28;44860;-88
2022/07/26 03:31:45;;;;;;;;;3.00;2.00;;;;;17.66;100.00;101391.16;4936979;28;45426;-88
2022/07/26 03:34:11;;;;;;;;;3.00;2.00;;;;;17.63;100.00;101393.22;4937750;28;45047;-89
2022/07/26 03:36:36;;;;;;;;;2.00;2.00;;;;;17.63;100.00;101380.66;4932062;28;45332;-89
2022/07/26 03:39:02;;;;;;;;;2.00;1.00;;;;;17.66;100.00;101390.28;4929096;28;45292;-88
2022/07/26 03:41:30;;;;;;;;;4.00;3.00;;;;;17.69;100.00;101396.22;4927235;28;44819;-89
2022/07/26 03:43:59;;;;;;;;;3.20;1.80;;;;;17.70;100.00;101403.34;4940990;28;45529;-88
2022/07/26 03:46:24;;;;;;;;;2.00;2.00;;;;;17.71;100.00;101404.19;4927360;28;45441;-88
2022/07/26 03:48:50;;;;;;;;;1.00;1.00;;;;;17.76;100.00;101403.81;4929073;28;45483;-88
2022/07/26 03:51:15;;;;;;;;;2.00;2.00;;;;;17.75;100.00;101394.06;4931157;28;45006;-88
2022/07/26 03:53:41;;;;;;;;;3.25;1.00;;;;;17.80;100.00;101398.06;4927512;28;46830;-89
2022/07/26 03:58:51;;;;;;;;;2.60;2.00;;;;;17.80;100.00;101414.19;4935910;28;44803;-88
2022/07/26 04:01:17;;;;;;;;;2.00;2.00;;;;;17.86;100.00;101408.25;4929838;28;45371;-88
2022/07/26 04:03:42;;;;;;;;;4.50;0.25;;;;;17.85;100.00;101411.09;4933811;28;45396;-88
2022/07/26 04:06:09;;;;;;;;;1.25;1.25;;;;;17.89;100.00;101408.00;4930872;28;45348;-88
2022/07/26 04:08:34;;;;;;;;;2.40;2.00;;;;;17.94;100.00;101399.53;4929261;28;45315;-89
2022/07/26 04:11:00;;;;;;;;;4.50;2.75;;;;;18.00;100.00;101400.84;4932468;28;44843;-88
2022/07/26 04:13:26;;;;;;;;;3.50;1.25;;;;;17.98;100.00;101398.25;4934192;28;46202;-88
2022/07/26 04:18:27;;;;;;;;;3.40;2.40;;;;;18.00;100.00;101403.53;5221000;23;44894;-88
2022/07/26 04:20:53;;;;;;;;;3.60;3.00;;;;;18.04;100.00;101400.44;4938710;28;45352;-88
2022/07/26 04:23:19;;;;;;;;;5.25;2.75;;;;;18.02;100.00;101396.16;4940900;28;45213;-88
2022/07/26 04:25:44;;;;;;;;;3.00;2.00;;;;;17.96;100.00;101401.09;4937415;28;44713;-89
2022/07/26 04:28:10;;;;;;;;;2.25;1.00;;;;;18.06;100.00;101411.03;4939407;28;44737;-88
2022/07/26 04:30:37;;;;;;;;;5.00;3.00;;;;;18.01;100.00;101398.00;4940300;28;45319;-88
2022/07/26 04:33:03;;;;;;;;;3.00;3.00;;;;;18.08;100.00;101401.84;4952650;28;45384;-88
2022/07/26 04:35:29;;;;;;;;;2.00;2.00;;;;;18.10;100.00;101405.25;4932866;28;45245;-89
2022/07/26 04:37:55;;;;;;;;;2.75;2.75;;;;;18.13;100.00;101396.94;4932806;28;44615;-88
2022/07/26 04:40:21;;;;;;;;;3.00;3.00;;;;;18.11;100.00;101406.97;4932517;28;44752;-88
2022/07/26 04:42:48;;;;;;;;;5.00;1.80;;;;;18.11;100.00;101403.41;4929326;28;45238;-88
2022/07/26 04:45:13;;;;;;;;;1.20;1.20;;;;;18.14;100.00;101405.84;4927295;28;45402;-89
2022/07/26 04:47:50;;;;;;;;;3.75;3.00;;;;;18.17;100.00;101408.25;4928045;28;44821;-89
2022/07/26 04:50:16;;;;;;;;;3.00;2.00;;;;;18.26;100.00;101415.50;4946466;28;44787;-88
2022/07/26 04:52:42;;;;;;;;;3.50;2.25;;;;;18.24;100.00;101418.34;4933713;28;45450;-89
2022/07/26 05:00:22;;;;;;;;;2.75;2.00;;;;;18.24;100.00;101420.19;5066097;23;44886;-89
2022/07/26 05:02:49;;;;;;;;;4.40;2.40;;;;;18.26;100.00;101420.88;4900077;29;45308;-89
2022/07/26 05:05:14;;;;;;;;;5.20;3.00;;;;;18.29;100.00;101415.25;4920151;29;44605;-89
2022/07/26 05:07:47;;;;;;;;;5.25;4.00;;;;;18.33;100.00;101424.75;4924093;28;44743;-88
2022/07/26 05:10:13;;;;;;;;;2.00;2.00;;;;;18.34;100.00;101426.44;4923650;29;44867;-89
2022/07/26 05:12:39;;;;;;;;;2.80;2.80;;;;;18.41;100.00;101427.59;4921726;29;45250;-88
2022/07/26 05:15:07;;;;;;;;;3.00;3.00;;;;;18.44;100.00;101424.63;4918897;29;44694;-89
2022/07/26 05:17:32;;;;;;;;;4.00;2.20;;;;;18.47;100.00;101428.91;4919859;29;44707;-88
2022/07/26 05:19:58;;;;;;;;;3.00;3.00;;;;;18.44;100.00;101427.34;4898426;29;44792;-89
2022/07/26 05:22:24;;;;;;;;;3.00;3.00;;;;;18.47;100.00;101432.44;4911603;29;45564;-89
2022/07/26 05:24:50;;;;;;;;;5.00;3.00;;;;;18.54;100.00;101438.13;4892866;29;44765;-88
2022/07/26 05:27:15;;;;;;;;;2.75;1.00;;;;;18.53;100.00;101433.75;4909240;29;45199;-88
2022/07/26 05:29:41;;;;;;;;;4.00;2.75;;;;;18.57;100.00;101443.25;4893747;29;44846;-89
2022/07/26 05:32:08;;;;;;;;;4.00;4.00;;;;;18.49;100.00;101435.00;4909886;29;45029;-90
2022/07/26 05:34:34;;;;;;;;;7.20;6.80;;;;;18.48;100.00;101436.84;4905342;29;45388;-88
2022/07/26 05:46:25;;;;;;;;;4.20;3.00;;;;;18.60;100.00;101442.94;5086284;23;45013;-89
2022/07/26 05:48:50;;;;;;;;;5.00;3.50;;;;;18.57;100.00;101439.69;4889404;29;44785;-89
2022/07/26 05:51:16;;;;;;;;;4.25;3.00;;;;;18.58;100.00;101444.09;4906559;29;44863;-89
2022/07/26 05:53:42;;;;;;;;;4.00;2.20;;;;;18.65;100.00;101431.78;4912839;29;45235;-89
2022/07/26 05:56:08;;;;;;;;;6.00;4.00;;;;;18.70;100.00;101429.53;4913210;29;44894;-89
2022/07/26 05:58:33;;;;;;;;;5.00;4.00;;;;;18.65;100.00;101442.53;4894555;29;45468;-88
2022/07/26 06:00:58;;;;;;;;;3.50;2.25;;;;;18.62;100.00;101446.38;4891735;29;44801;-89
2022/07/26 06:03:24;;;;;;;;;5.25;3.00;;;;;18.61;100.00;101446.50;5121980;23;46077;-89
2022/07/26 06:08:25;;;;;;;;;3.00;3.00;;;;;18.72;100.00;101447.28;4939914;23;45087;-88
2022/07/26 06:10:52;;;;;;;;;3.00;3.00;;;;;18.69;100.00;101449.38;4906595;29;45071;-88
2022/07/26 06:13:18;;;;;;;;;3.00;3.00;;;;;18.64;100.00;101451.59;4909237;29;45209;-87
2022/07/26 06:15:44;;;;;;;;;4.00;4.00;;;;;18.63;100.00;101456.13;4912084;29;44773;-88
2022/07/26 06:18:10;;;;;;;;;5.80;2.60;;;;;18.75;100.00;101454.22;4907218;29;44849;-88
2022/07/26 06:20:40;;;;;;;;;3.25;3.25;;;;;18.82;100.00;101460.75;4902126;28;45017;-88
2022/07/26 06:23:05;;;;;;;;;2.80;2.40;;;;;18.86;100.00;101464.03;4893490;28;46920;-89
2022/07/26 06:25:31;;;;;;;;;2.00;2.00;;;;;18.91;100.00;101464.47;4930826;28;44702;-88
2022/07/26 06:27:57;;;;;;;;;4.25;3.00;;;;;18.98;100.00;101458.38;4934517;28;44675;-89
2022/07/26 06:30:23;;;;;;;;;2.25;2.25;;;;;18.95;100.00;101469.44;4915911;28;45539;-88
2022/07/26 06:32:48;;;;;;;;;4.50;3.75;;;;;18.97;100.00;101466.59;4930922;28;44990;-87
2022/07/26 06:35:14;;;;;;;;;4.75;4.00;;;;;19.09;100.00;101464.63;4912723;28;44671;-88
2022/07/26 06:37:41;;;;;;;;;3.75;3.00;;;;;19.11;100.00;101466.19;4930856;28;45235;-87
2022/07/26 06:40:08;;;;;;;;;3.25;3.00;;;;;19.23;100.00;101469.59;4926914;28;45396;-88
2022/07/26 06:42:34;;;;;;;;;4.00;2.20;;;;;19.14;100.00;101470.44;4923446;28;45170;-88
2022/07/26 06:45:01;;;;;;;;;6.40;3.60;;;;;19.04;100.00;101466.88;4923708;28;45494;-88
2022/07/26 06:47:27;;;;;;;;;5.20;3.80;;;;;19.04;100.00;101469.56;4910259;28;44725;-87
2022/07/26 06:49:54;;;;;;;;;13.00;3.75;;;;;19.11;100.00;101476.97;4929412;28;44823;-88
2022/07/26 06:52:20;;;;;;;;;3.60;3.60;;;;;19.11;100.00;101468.88;4910038;28;45059;-88
2022/07/26 06:54:46;;;;;;;;;4.00;2.40;;;;;19.20;100.00;101467.19;4931967;28;45153;-88
2022/07/26 06:57:11;;;;;;;;;4.00;4.00;;;;;19.22;100.00;101473.28;4927277;28;44801;-88
2022/07/26 06:59:37;;;;;;;;;2.75;2.75;;;;;19.25;100.00;101473.84;4930896;28;44877;-87
2022/07/26 07:02:03;;;;;;;;;4.50;3.00;;;;;19.41;100.00;101475.13;5256748;23;46009;-88
2022/07/26 07:04:29;;;;;;;;;7.20;3.20;;;;;19.35;100.00;101470.31;4928549;28;45174;-89
2022/07/26 07:06:56;;;;;;;;;3.20;2.00;;;;;19.23;100.00;101470.44;4928244;28;44639;-88
2022/07/26 07:09:22;;;;;;;;;3.00;3.00;;;;;19.31;100.00;101477.81;4927980;28;45348;-89
2022/07/26 07:11:48;;;;;;;;;2.80;2.80;;;;;19.43;100.00;101475.81;4925590;28;45285;-89
2022/07/26 07:14:14;;;;;;;;;4.00;4.00;;;;;19.63;100.00;101471.31;4927736;28;45567;-90
2022/07/26 07:16:40;;;;;;;;;3.50;2.75;;;;;19.64;100.00;101470.34;4911821;28;44783;-89
2022/07/26 07:19:06;;;;;;;;;6.00;2.00;;;;;19.51;100.00;101475.97;4936141;28;44845;-89
2022/07/26 07:21:32;;;;;;;;;5.25;2.75;;;;;19.42;100.00;101477.69;4934522;28;45080;-89
2022/07/26 07:23:58;;;;;;;;;4.00;2.60;;;;;19.50;100.00;101475.13;4925095;28;44703;-88
2022/07/26 07:26:25;;;;;;;;;2.20;2.20;;;;;19.47;100.00;101479.94;4929185;28;44804;-89
2022/07/26 07:28:50;;;;;;;;;3.00;2.00;;;;;19.32;100.00;101476.81;4928989;28;44748;-88
2022/07/26 07:31:16;;;;;;;;;2.25;2.25;;;;;19.44;100.00;101488.34;4934153;28;45205;-89
2022/07/26 07:33:41;;;;;;;;;3.00;3.00;;;;;19.52;100.00;101478.53;4931552;28;44880;-88
2022/07/26 07:36:07;;;;;;;;;2.00;2.00;;;;;19.68;100.00;101480.69;4934899;28;44823;-89
2022/07/26 07:38:33;;;;;;;;;3.75;3.75;;;;;19.63;100.00;101482.97;4937014;28;44883;-89
2022/07/26 07:40:58;;;;;;;;;3.00;3.00;;;;;19.73;100.00;101482.97;4937516;28;46542;-88
2022/07/26 07:43:27;;;;;;;;;4.00;4.00;;;;;19.89;100.00;101480.50;4940340;28;44757;-89
2022/07/26 07:45:52;;;;;;;;;5.20;4.00;;;;;19.66;100.00;101482.66;4926479;28;44747;-89
2022/07/26 07:48:18;;;;;;;;;3.50;3.50;;;;;19.77;100.00;101471.75;4925520;28;44944;-89
2022/07/26 07:50:43;;;;;;;;;2.00;2.00;;;;;19.94;100.00;101474.69;4924971;28;45285;-88
2022/07/26 07:53:09;;;;;;;;;5.25;5.25;;;;;20.00;100.00;101484.88;4925669;28;45172;-89
2022/07/26 07:55:34;;;;;;;;;3.00;3.00;;;;;20.08;100.00;101484.16;4933291;28;44813;-89
2022/07/26 07:58:00;;;;;;;;;5.25;4.25;;;;;20.00;100.00;101482.19;4932342;28;45208;-89
2022/07/26 08:00:26;;;;;;;;;2.00;2.00;;;;;19.94;100.00;101477.38;4931956;28;45140;-89
2022/07/26 08:02:51;;;;;;;;;5.25;3.25;;;;;20.00;100.00;101472.25;4933857;28;44987;-89
2022/07/26 08:05:18;;;;;;;;;2.75;2.75;;;;;20.08;100.00;101470.66;4933152;28;44800;-90
2022/07/26 08:07:43;;;;;;;;;5.00;2.80;;;;;20.01;100.00;101475.78;4936345;28;44784;-89
2022/07/26 08:10:09;;;;;;;;;4.00;3.00;;;;;20.29;100.00;101482.94;4935764;28;45144;-88
2022/07/26 08:12:35;;;;;;;;;2.20;2.20;;;;;20.25;100.00;101478.81;4928091;28;44918;-89
2022/07/26 08:15:01;;;;;;;;;4.50;4.50;;;;;20.35;100.00;101470.69;4926519;28;44745;-89
2022/07/26 08:17:27;;;;;;;;;2.20;2.20;;;;;20.15;100.00;101478.00;4926819;28;45224;-89
2022/07/26 08:19:52;;;;;;;;;5.00;3.00;;;;;20.20;100.00;101480.28;4945541;28;45471;-89
2022/07/26 08:22:18;;;;;;;;;5.00;2.50;;;;;20.29;100.00;101482.09;4930764;28;45284;-88
2022/07/26 08:24:45;;;;;;;;;2.50;2.50;;;;;20.24;100.00;101482.53;4942566;28;45241;-89
2022/07/26 08:27:11;;;;;;;;;2.20;2.00;;;;;20.39;100.00;101482.06;4924810;28;44982;-89
2022/07/26 08:29:37;;;;;;;;;2.00;2.00;;;;;20.52;100.00;101463.72;4925907;28;45297;-89
2022/07/26 08:32:03;;;;;;;;;3.00;3.00;;;;;20.69;100.00;101475.53;4925496;28;45491;-88
2022/07/26 08:34:32;;;;;;;;;2.00;1.00;;;;;20.58;100.00;101479.28;4927248;28;44704;-89
2022/07/26 08:36:57;;;;;;;;;3.80;2.40;;;;;20.63;100.00;101474.28;4928963;28;44864;-88
2022/07/26 08:39:23;;;;;;;;;4.00;2.25;;;;;20.89;100.00;101474.44;4932538;28;45219;-89
2022/07/26 08:41:49;;;;;;;;;1.75;1.75;;;;;21.26;100.00;101466.19;4949536;28;44710;-88
2022/07/26 08:44:16;;;;;;;;;2.00;2.00;;;;;21.16;100.00;101478.09;4930337;28;44746;-89
2022/07/26 08:46:44;;;;;;;;;4.40;3.20;;;;;20.99;100.00;101479.78;4928792;28;44908;-89
2022/07/26 08:49:11;;;;;;;;;2.80;2.80;;;;;21.06;100.00;101480.88;4931727;28;45545;-89
2022/07/26 08:51:39;;;;;;;;;4.00;2.80;;;;;21.04;100.00;101481.03;4926294;28;45500;-89
2022/07/26 08:54:05;;;;;;;;;2.80;2.20;;;;;21.13;100.00;101475.69;4940718;28;44741;-88
2022/07/26 08:56:36;;;;;;;;;4.00;2.80;;;;;21.12;100.00;101474.00;4925164;28;45508;-88
2022/07/26 08:59:12;;;;;;;;;5.20;3.20;;;;;20.92;100.00;101481.38;5645397;23;46345;-87
2022/07/26 09:01:51;;;;;;;;;4.60;2.40;;;;;20.78;100.00;101491.69;4908473;29;44841;-88
2022/07/26 09:04:19;;;;;;;;;5.20;5.20;;;;;20.93;100.00;101486.63;5008604;23;45205;-89
2022/07/26 09:06:57;;;;;;;;;2.60;2.00;;;;;21.04;100.00;101482.88;4924682;28;44739;-89
2022/07/26 09:09:22;;;;;;;;;1.20;1.20;;;;;20.81;100.00;101485.16;4924564;28;45120;-89
2022/07/26 09:11:48;;;;;;;;;3.25;3.25;;;;;20.76;100.00;101490.16;4923367;28;45413;-90
2022/07/26 09:16:57;;;;;;;;;2.00;2.00;;;;;21.10;100.00;101501.19;5207292;23;45784;-88
2022/07/26 09:19:24;;;;;;;;;3.60;3.20;;;;;21.19;100.00;101494.88;4902285;29;45027;-88
2022/07/26 09:21:51;;;;;;;;;2.20;2.20;;;;;21.25;100.00;101496.94;4892275;29;45195;-88
2022/07/26 09:24:36;;;;;;;;;3.00;3.00;;;;;21.45;100.00;101494.97;4895946;29;45255;-89
2022/07/26 09:27:05;;;;;;;;;3.00;2.80;;;;;21.25;100.00;101501.50;4913986;29;45332;-88
2022/07/26 09:37:17;;;;;;;;;2.80;2.80;;;;;21.19;100.00;101502.97;5057209;23;45489;-88
2022/07/26 09:39:59;;;;;;;;;5.00;2.60;;;;;21.12;100.00;101509.97;4913380;28;45668;-88
2022/07/26 09:45:13;;;;;;;;;6.00;6.00;;;;;21.14;100.00;101510.69;5127690;23;45783;-89
2022/07/26 09:47:39;;;;;;;;;2.60;2.40;;;;;21.25;100.00;101513.16;4927178;28;45250;-89
2022/07/26 09:50:16;;;;;;;;;3.25;3.25;;;;;21.23;100.00;101517.03;4906986;28;45281;-89
2022/07/26 09:53:02;;;;;;;;;2.40;2.00;;;;;21.18;100.00;101519.34;4906757;28;44788;-88
2022/07/26 09:55:29;;;;;;;;;4.00;1.00;;;;;21.27;100.00;101519.28;4896542;28;44831;-89
2022/07/26 09:57:56;;;;;;;;;3.00;3.00;;;;;21.48;100.00;101516.28;4927582;28;45335;-88
2022/07/26 10:00:24;;;;;;;;;2.00;2.00;;;;;21.78;100.00;101516.88;4927975;28;45073;-89
2022/07/26 10:02:52;;;;;;;;;1.20;1.20;;;;;22.07;100.00;101508.47;4941658;28;44816;-88
2022/07/26 10:05:20;;;;;;;;;4.20;2.00;;;;;22.39;100.00;101517.84;4963626;28;44789;-88
2022/07/26 10:07:48;;;;;;;;;3.40;3.00;;;;;22.10;100.00;101518.13;4939195;28;45370;-88
2022/07/26 10:10:36;;;;;;;;;1.40;1.00;;;;;21.92;100.00;101523.59;4935281;28;46565;-88
2022/07/26 10:13:03;;;;;;;;;4.20;1.00;;;;;21.60;100.00;101519.59;4941496;28;44840;-88
2022/07/26 10:15:49;;;;;;;;;2.20;2.20;;;;;21.47;100.00;101519.16;4949717;28;44763;-88
2022/07/26 10:18:50;;;;;;;;;2.00;0.60;;;;;21.65;100.00;101519.97;4943719;28;45256;-88
2022/07/26 10:21:29;;;;;;;;;1.80;1.80;;;;;21.61;100.00;101513.19;4856966;29;45448;-88
2022/07/26 10:23:59;;;;;;;;;0.20;0.20;;;;;21.54;100.00;101522.94;4875686;29;44803;-88
2022/07/26 10:29:15;;;;;;;;;2.00;2.00;;;;;21.73;100.00;101528.19;5114623;23;45213;-89
2022/07/26 10:31:47;;;;;;;;;3.00;1.00;;;;;21.80;100.00;101523.81;4907306;28;46783;-88
2022/07/26 10:34:31;;;;;;;;;2.00;2.00;;;;;21.90;100.00;101522.88;4907059;28;44721;-89
2022/07/26 10:37:18;;;;;;;;;3.00;2.00;;;;;21.98;100.00;101526.50;4924518;28;44764;-90
2022/07/26 10:39:47;;;;;;;;;2.80;2.40;;;;;22.15;100.00;101524.81;4933026;28;44926;-87
2022/07/26 10:42:13;;;;;;;;;3.20;2.00;;;;;22.23;100.00;101526.72;4919272;28;45143;-89
2022/07/26 10:44:44;;;;;;;;;3.75;3.75;;;;;22.44;100.00;101524.47;4919119;28;44678;-88
2022/07/26 10:47:10;;;;;;;;;2.00;0.40;;;;;22.50;100.00;101525.69;4897113;29;44837;-88
2022/07/26 10:49:39;;;;;;;;;5.20;2.80;;;;;22.73;100.00;101521.41;4895890;29;44926;-88
2022/07/26 10:52:26;;;;;;;;;2.00;2.00;;;;;22.87;100.00;101517.22;4895561;29;45107;-89
2022/07/26 10:54:57;;;;;;;;;2.40;2.40;;;;;22.88;100.00;101518.94;4906924;29;44916;-88
2022/07/26 10:57:24;;;;;;;;;2.20;1.80;;;;;22.64;100.00;101532.38;4904727;29;44781;-89
2022/07/26 10:59:51;;;;;;;;;1.00;1.00;;;;;22.60;100.00;101528.28;4903666;29;45040;-89
2022/07/26 11:02:18;;;;;;;;;2.20;0.60;;;;;22.70;100.00;101523.59;4912637;28;45254;-89
2022/07/26 11:04:43;;;;;;;;;1.20;1.20;;;;;22.79;100.00;101530.75;4918191;28;44805;-88
2022/07/26 11:07:09;;;;;;;;;3.00;2.00;;;;;23.26;100.00;101514.84;4934600;28;44788;-88
2022/07/26 11:09:35;;;;;;;;;2.25;1.00;;;;;23.52;100.00;101514.69;4922498;28;44774;-89
2022/07/26 11:12:20;;;;;;;;;2.00;1.00;;;;;23.70;100.00;101517.28;4938115;28;44958;-88
2022/07/26 11:14:47;;;;;;;;;1.20;1.20;;;;;23.70;100.00;101521.84;4932809;28;44781;-89
2022/07/26 11:17:30;;;;;;;;;5.00;3.00;;;;;24.02;99.63;101510.97;4928819;28;44774;-89
2022/07/26 11:19:56;;;;;;;;;2.20;1.00;;;;;24.14;91.80;101503.31;4930443;28;44653;-90
2022/07/26 11:22:30;;;;;;;;;4.00;0.00;;;;;24.40;93.02;101503.09;4931649;28;45150;-89
2022/07/26 11:24:56;;;;;;;;;0.00;0.00;;;;;24.39;89.34;101512.28;4935867;28;44817;-89
2022/07/26 11:27:23;;;;;;;;;2.75;1.75;;;;;24.47;87.54;101504.13;4932626;28;44762;-88
2022/07/26 11:29:49;;;;;;;;;2.00;2.00;;;;;24.17;85.55;101505.66;4906695;28;44852;-89
2022/07/26 11:32:20;;;;;;;;;0.00;0.00;;;;;24.06;91.81;101504.16;4923358;28;45357;-89
2022/07/26 11:35:27;;;;;;;;;1.00;1.00;;;;;24.27;91.16;101497.31;4936569;28;44704;-92
2022/07/26 11:40:46;;;;;;;;;1.80;1.00;;;;;24.67;89.00;101492.84;5018248;23;44843;-88
2022/07/26 11:43:13;;;;;;;;;1.20;1.20;;;;;24.81;86.31;101487.50;4922251;28;47018;-89
2022/07/26 11:45:39;;;;;;;;;2.00;1.20;;;;;25.01;87.12;101493.34;4926904;28;45213;-87
2022/07/26 11:48:06;;;;;;;;;2.00;2.00;;;;;24.93;85.87;101497.97;4926343;28;44806;-88
2022/07/26 11:50:32;;;;;;;;;2.00;2.00;;;;;24.87;88.45;101492.22;4926236;28;44890;-88
2022/07/26 11:52:58;;;;;;;;;2.00;2.00;;;;;24.60;91.07;101495.38;4924893;28;45180;-88
2022/07/26 11:55:30;;;;;;;;;2.00;2.00;;;;;24.13;93.26;101495.31;4928315;28;45382;-88
2022/07/26 11:58:05;;;;;;;;;1.20;1.20;;;;;24.13;95.94;101492.63;4926690;28;45418;-88
2022/07/26 12:00:31;;;;;;;;;2.40;2.40;;;;;23.85;95.68;101499.28;4929140;28;45403;-88
2022/07/26 12:02:57;;;;;;;;;2.50;2.00;;;;;23.84;97.49;101492.16;4938356;28;45195;-88
2022/07/26 12:05:24;;;;;;;;;2.75;2.75;;;;;23.25;98.19;101493.28;4957543;28;44743;-88
2022/07/26 12:08:02;;;;;;;;;2.00;2.00;;;;;23.18;97.86;101497.69;4951573;28;45235;-88
2022/07/26 12:10:29;;;;;;;;;3.00;3.00;;;;;23.23;97.57;101489.91;4951189;28;44822;-89
2022/07/26 12:13:14;;;;;;;;;2.00;2.00;;;;;23.00;97.50;101500.53;4945622;28;45263;-89
2022/07/26 12:15:44;;;;;;;;;2.40;2.00;;;;;23.16;97.39;101487.03;4943469;28;44807;-88
2022/07/26 12:18:10;;;;;;;;;1.60;1.60;;;;;23.25;99.20;101504.97;4945539;28;44741;-88
2022/07/26 12:20:35;;;;;;;;;2.00;2.00;;;;;23.10;100.00;101501.22;4945304;28;44903;-89